createdAt,value
2023-04-15T00:00:46.878Z,99471.66
2023-04-15T00:03:51.289Z,99469.41
2023-04-15T00:06:54.820Z,99470.50
2023-04-15T00:09:57.925Z,99472.47
2023-04-15T00:12:59.782Z,99468.50
2023-04-15T00:16:02.346Z,99483.22
2023-04-15T00:19:05.002Z,99484.19
2023-04-15T00:22:07.203Z,99481.53
2023-04-15T00:25:09.639Z,99480.13
2023-04-15T00:28:11.748Z,99474.94
2023-04-15T00:31:14.356Z,99479.94
2023-04-15T00:34:16.782Z,99479.41
2023-04-15T00:37:18.729Z,99480.63
2023-04-15T00:40:21.960Z,99488.88
2023-04-15T00:43:26.559Z,99484.78
2023-04-15T00:46:31.143Z,99489.56
2023-04-15T00:49:33.286Z,99488.00
2023-04-15T00:52:37.321Z,99500.31
2023-04-15T00:55:40.151Z,99490.78
2023-04-15T00:58:42.143Z,99490.66
2023-04-15T01:01:44.749Z,99491.91
2023-04-15T01:04:47.219Z,99496.41
2023-04-15T01:07:49.417Z,99497.66
2023-04-15T01:10:51.255Z,99498.63
2023-04-15T01:13:55.197Z,99507.81
2023-04-15T01:16:57.650Z,99512.28
2023-04-15T01:19:59.576Z,99506.13
2023-04-15T01:23:01.562Z,99507.56
2023-04-15T01:26:04.221Z,99517.88
2023-04-15T01:29:06.825Z,99523.63
2023-04-15T01:32:09.099Z,99524.22
2023-04-15T01:35:10.991Z,99522.66
2023-04-15T01:38:13.711Z,99523.50
2023-04-15T01:41:15.658Z,99529.09
2023-04-15T01:44:17.710Z,99531.41
2023-04-15T01:47:19.674Z,99533.00
2023-04-15T01:50:22.676Z,99527.50
2023-04-15T01:53:27.678Z,99535.09
2023-04-15T01:56:29.955Z,99528.66
2023-04-15T01:59:32.289Z,99533.66
2023-04-15T02:02:34.668Z,99538.00
2023-04-15T02:05:36.720Z,99543.22
2023-04-15T02:08:39.287Z,99541.53
2023-04-15T02:11:42.644Z,99544.44
2023-04-15T02:14:44.459Z,99542.41
2023-04-15T02:17:51.078Z,99534.31
2023-04-15T02:20:53.267Z,99537.22
2023-04-15T02:23:55.115Z,99549.19
2023-04-15T02:26:57.546Z,99551.97
2023-04-15T02:29:59.469Z,99555.13
2023-04-15T02:33:01.989Z,99558.97
2023-04-15T02:36:04.480Z,99551.97
2023-04-15T02:39:06.447Z,99560.78
2023-04-15T02:42:09.278Z,99570.59
2023-04-15T02:45:12.998Z,99577.09
2023-04-15T02:48:18.145Z,99578.06
2023-04-15T02:51:21.705Z,99572.03
2023-04-15T02:54:24.891Z,99575.19
2023-04-15T02:57:28.706Z,99578.31
2023-04-15T03:00:33.488Z,99580.97
2023-04-15T03:03:35.573Z,99582.06
2023-04-15T03:06:37.652Z,99582.16
2023-04-15T03:09:41.318Z,99589.78
2023-04-15T03:12:43.774Z,99585.53
2023-04-15T03:15:50.863Z,99584.22
2023-04-15T03:18:52.839Z,99583.84
2023-04-15T03:21:56.388Z,99586.50
2023-04-15T03:24:58.503Z,99592.06
2023-04-15T03:28:00.790Z,99590.50
2023-04-15T03:31:02.737Z,99597.13
2023-04-15T03:34:04.719Z,99596.75
2023-04-15T03:37:06.890Z,99603.38
2023-04-15T03:40:09.864Z,99605.78
2023-04-15T03:43:12.305Z,99608.81
2023-04-15T03:46:14.246Z,99606.75
2023-04-15T03:49:16.446Z,99614.72
2023-04-15T03:52:18.392Z,99614.13
2023-04-15T03:55:20.773Z,99618.47
2023-04-15T03:58:22.667Z,99621.13
2023-04-15T04:01:24.677Z,99621.72
2023-04-15T04:04:26.837Z,99620.59
2023-04-15T04:07:28.983Z,99631.94
2023-04-15T04:10:31.087Z,99632.44
2023-04-15T04:13:33.086Z,99627.47
2023-04-15T04:16:34.962Z,99623.00
2023-04-15T04:19:36.902Z,99631.47
2023-04-15T04:22:40.195Z,99630.38
2023-04-15T04:25:42.554Z,99639.66
2023-04-15T04:28:44.432Z,99642.19
2023-04-15T04:31:47.059Z,99638.06
2023-04-15T04:34:49.008Z,99645.06
2023-04-15T04:37:51.035Z,99639.25
2023-04-15T04:40:52.974Z,99638.53
2023-04-15T04:43:54.892Z,99643.25
2023-04-15T04:46:56.767Z,99643.84
2023-04-15T04:49:58.654Z,99648.78
2023-04-15T04:53:01.261Z,99652.63
2023-04-15T04:56:03.658Z,99652.34
2023-04-15T04:59:05.976Z,99642.00
2023-04-15T05:02:07.943Z,99649.13
2023-04-15T05:05:11.820Z,99653.66
2023-04-15T05:08:13.712Z,99652.94
2023-04-15T05:11:15.606Z,99648.81
2023-04-15T05:14:17.573Z,99656.53
2023-04-15T05:17:19.396Z,99646.88
2023-04-15T05:20:21.447Z,99661.59
2023-04-15T05:23:23.450Z,99658.88
2023-04-15T05:26:25.439Z,99659.59
2023-04-15T05:29:27.461Z,99658.75
2023-04-15T05:32:29.382Z,99660.97
2023-04-15T05:35:31.326Z,99670.38
2023-04-15T05:38:33.365Z,99675.44
2023-04-15T05:41:35.313Z,99679.66
2023-04-15T05:44:37.238Z,99682.53
2023-04-15T05:47:40.226Z,99683.44
2023-04-15T05:50:42.603Z,99696.69
2023-04-15T05:53:46.046Z,99697.06
2023-04-15T05:56:47.987Z,99705.91
2023-04-15T05:59:52.441Z,99703.13
2023-04-15T06:02:54.944Z,99697.63
2023-04-15T06:05:56.834Z,99708.53
2023-04-15T06:08:58.769Z,99715.38
2023-04-15T06:12:01.988Z,99732.63
2023-04-15T06:15:06.741Z,99737.81
2023-04-15T06:18:08.597Z,99742.75
2023-04-15T06:21:10.707Z,99740.22
2023-04-15T06:24:12.936Z,99739.84
2023-04-15T06:27:14.863Z,99737.16
2023-04-15T06:30:17.162Z,99746.66
2023-04-15T06:33:19.050Z,99749.38
2023-04-15T06:36:21.224Z,99756.84
2023-04-15T06:39:23.143Z,99758.03
2023-04-15T06:42:25.133Z,99758.72
2023-04-15T06:45:27.451Z,99758.72
2023-04-15T06:48:29.430Z,99773.53
2023-04-15T06:51:31.643Z,99774.66
2023-04-15T06:54:33.557Z,99782.31
2023-04-15T06:57:35.463Z,99787.16
2023-04-15T07:00:39.334Z,99794.50
2023-04-15T07:03:42.108Z,99799.91
2023-04-15T07:06:44.703Z,99799.06
2023-04-15T07:09:46.654Z,99797.63
2023-04-15T07:12:49.408Z,99806.84
2023-04-15T07:15:51.374Z,99813.47
2023-04-15T07:18:53.220Z,99816.97
2023-04-15T07:21:55.150Z,99807.50
2023-04-15T07:24:57.051Z,99816.41
2023-04-15T07:27:59.050Z,99810.03
2023-04-15T07:31:01.223Z,99809.00
2023-04-15T07:34:05.259Z,99809.53
2023-04-15T07:37:07.429Z,99810.50
2023-04-15T07:40:10.170Z,99802.44
2023-04-15T07:43:13.565Z,99803.53
2023-04-15T07:46:15.636Z,99807.50
2023-04-15T07:49:19.417Z,99806.97
2023-04-15T07:52:21.242Z,99816.25
2023-04-15T07:55:23.603Z,99814.00
2023-04-15T07:58:25.862Z,99812.75
2023-04-15T08:01:27.853Z,99811.78
2023-04-15T08:04:29.962Z,99819.84
2023-04-15T08:07:32.732Z,99823.50
2023-04-15T08:10:34.811Z,99818.88
2023-04-15T08:13:36.656Z,99829.41
2023-04-15T08:16:38.715Z,99820.81
2023-04-15T08:19:41.050Z,99816.28
2023-04-15T08:22:42.845Z,99815.78
2023-04-15T08:25:44.744Z,99819.19
2023-04-15T08:28:47.157Z,99813.44
2023-04-15T08:31:49.173Z,99818.94
2023-04-15T08:34:51.112Z,99822.75
2023-04-15T08:37:53.003Z,99818.00
2023-04-15T08:40:57.369Z,99817.44
2023-04-15T08:44:05.189Z,99821.94
2023-04-15T08:47:09.470Z,99821.66
2023-04-15T08:50:12.011Z,99816.03
2023-04-15T08:53:14.983Z,99819.69
2023-04-15T08:56:16.997Z,99824.06
2023-04-15T08:59:21.407Z,99826.16
2023-04-15T09:02:25.860Z,99828.69
2023-04-15T09:05:27.840Z,99833.63
2023-04-15T09:08:29.646Z,99838.81
2023-04-15T09:11:31.599Z,99832.38
2023-04-15T09:14:35.022Z,99837.44
2023-04-15T09:17:43.194Z,99843.03
2023-04-15T09:20:45.066Z,99843.16
2023-04-15T09:23:58.506Z,99839.72
2023-04-15T09:27:00.655Z,99845.34
2023-04-15T09:30:02.484Z,99841.28
2023-04-15T09:33:08.966Z,99840.03
2023-04-15T09:36:11.021Z,99825.31
2023-04-15T09:39:13.224Z,99826.91
2023-04-15T09:42:15.236Z,99822.50
2023-04-15T09:45:17.247Z,99827.81
2023-04-15T09:48:31.174Z,99819.59
2023-04-15T09:51:35.833Z,99830.09
2023-04-15T09:54:38.806Z,99828.41
2023-04-15T09:57:50.080Z,99835.75
2023-04-15T10:00:53.300Z,99838.88
2023-04-15T10:03:58.009Z,99837.13
2023-04-15T10:07:02.225Z,99835.34
2023-04-15T10:10:05.522Z,99833.88
2023-04-15T10:13:08.265Z,99838.75
2023-04-15T10:16:16.278Z,99839.75
2023-04-15T10:19:21.969Z,99836.91
2023-04-15T10:22:26.506Z,99842.41
2023-04-15T10:25:29.639Z,99845.00
2023-04-15T10:28:31.731Z,99851.22
2023-04-15T10:31:34.257Z,99852.25
2023-04-15T10:34:37.193Z,99853.69
2023-04-15T10:37:39.145Z,99846.84
2023-04-15T10:40:41.242Z,99842.25
2023-04-15T10:43:54.194Z,99845.31
2023-04-15T10:46:58.941Z,99850.88
2023-04-15T10:50:02.482Z,99846.91
2023-04-15T10:53:07.458Z,99848.81
2023-04-15T10:56:10.628Z,99841.00
2023-04-15T10:59:12.520Z,99846.22
2023-04-15T11:02:15.616Z,99847.78
2023-04-15T11:05:19.059Z,99854.56
2023-04-15T11:08:41.079Z,99850.75
2023-04-15T11:12:06.257Z,99858.69
2023-04-15T11:15:41.776Z,99843.47
2023-04-15T11:18:54.343Z,99857.59
2023-04-15T11:21:56.962Z,99859.06
2023-04-15T11:24:58.824Z,99858.91
2023-04-15T11:28:02.224Z,99859.06
2023-04-15T11:31:12.022Z,99854.06
2023-04-15T11:34:24.149Z,99861.63
2023-04-15T11:37:30.438Z,99854.84
2023-04-15T11:40:33.592Z,99855.75
2023-04-15T11:43:35.657Z,99850.06
2023-04-15T11:46:37.494Z,99845.16
2023-04-15T11:49:41.680Z,99850.47
2023-04-15T11:53:01.499Z,99862.31
2023-04-15T11:56:03.430Z,99857.78
2023-04-15T11:59:05.326Z,99855.31
2023-04-15T12:02:14.363Z,99857.38
2023-04-15T12:09:01.290Z,99862.91
2023-04-15T12:12:03.353Z,99859.84
2023-04-15T12:15:05.680Z,99855.69
2023-04-15T12:18:17.881Z,99861.22
2023-04-15T12:21:21.176Z,99853.09
2023-04-15T12:24:23.613Z,99859.41
2023-04-15T12:27:29.270Z,99859.63
2023-04-15T12:30:32.457Z,99855.16
2023-04-15T12:33:34.966Z,99860.69
2023-04-15T12:36:37.334Z,99869.72
2023-04-15T12:39:41.591Z,99867.19
2023-04-15T12:42:43.465Z,99866.56
2023-04-15T12:45:45.321Z,99858.25
2023-04-15T12:48:47.589Z,99855.75
2023-04-15T12:51:51.140Z,99860.63
2023-04-15T12:54:53.715Z,99866.53
2023-04-15T12:57:55.554Z,99870.25
2023-04-15T13:00:57.551Z,99860.25
2023-04-15T13:03:59.589Z,99858.38
2023-04-15T13:07:02.508Z,99854.25
2023-04-15T13:10:04.389Z,99851.41
2023-04-15T13:13:06.387Z,99854.56
2023-04-15T13:16:08.488Z,99860.34
2023-04-15T13:19:10.418Z,99872.03
2023-04-15T13:22:12.596Z,99855.91
2023-04-15T13:25:14.553Z,99858.56
2023-04-15T13:28:16.509Z,99855.63
2023-04-15T13:31:18.461Z,99859.75
2023-04-15T13:34:20.385Z,99859.91
2023-04-15T13:37:27.412Z,99862.56
2023-04-15T13:40:29.361Z,99866.56
2023-04-15T13:43:31.842Z,99874.63
2023-04-15T13:46:33.888Z,99871.72
2023-04-15T13:49:35.763Z,99888.53
2023-04-15T13:52:37.736Z,99878.72
2023-04-15T13:55:41.800Z,99878.72
2023-04-15T13:58:43.822Z,99882.03
2023-04-15T14:01:45.783Z,99884.44
2023-04-15T14:04:47.707Z,99877.38
2023-04-15T14:07:49.656Z,99870.31
2023-04-15T14:10:51.573Z,99875.06
2023-04-15T14:13:53.434Z,99871.63
2023-04-15T14:16:56.749Z,99875.63
2023-04-15T14:19:58.751Z,99878.75
2023-04-15T14:23:00.990Z,99873.72
2023-04-15T14:26:02.862Z,99875.31
2023-04-15T14:29:05.136Z,99870.72
2023-04-15T14:32:12.310Z,99869.88
2023-04-15T14:35:14.816Z,99865.97
2023-04-15T14:38:16.993Z,99869.66
2023-04-15T14:41:19.728Z,99873.03
2023-04-15T14:44:23.095Z,99877.56
2023-04-15T14:47:27.070Z,99881.38
2023-04-15T14:50:30.664Z,99883.16
2023-04-15T14:53:33.251Z,99878.09
2023-04-15T14:56:36.350Z,99882.41
2023-04-15T14:59:39.669Z,99880.63
2023-04-15T15:02:43.197Z,99880.78
2023-04-15T15:05:47.796Z,99879.34
2023-04-15T15:08:51.352Z,99872.38
2023-04-15T15:11:53.710Z,99880.66
2023-04-15T15:14:56.367Z,99878.13
2023-04-15T15:17:58.973Z,99882.56
2023-04-15T15:21:02.685Z,99869.72
2023-04-15T15:24:06.588Z,99863.13
2023-04-15T15:27:09.701Z,99872.69
2023-04-15T15:30:13.502Z,99873.28
2023-04-15T15:33:18.507Z,99877.63
2023-04-15T15:36:21.905Z,99878.94
2023-04-15T15:39:25.363Z,99876.84
2023-04-15T15:42:35.058Z,99891.53
2023-04-15T15:45:38.677Z,99883.91
2023-04-15T15:48:42.093Z,99887.88
2023-04-15T15:51:46.436Z,99896.72
2023-04-15T15:54:50.372Z,99895.72
2023-04-15T15:57:55.092Z,99896.25
2023-04-15T16:00:58.757Z,99900.97
2023-04-15T16:04:01.763Z,99899.44
2023-04-15T16:07:04.539Z,99908.31
2023-04-15T16:10:07.081Z,99910.59
2023-04-15T16:13:10.408Z,99914.13
2023-04-15T16:16:12.493Z,99925.97
2023-04-15T16:19:14.410Z,99918.63
2023-04-15T16:22:16.419Z,99922.00
2023-04-15T16:25:18.584Z,99927.84
2023-04-15T16:28:26.456Z,99928.13
2023-04-15T16:31:29.060Z,99936.56
2023-04-15T16:34:31.102Z,99943.59
2023-04-15T16:37:33.417Z,99933.19
2023-04-15T16:40:35.306Z,99943.78
2023-04-15T16:43:37.265Z,99949.31
2023-04-15T16:46:40.875Z,99956.34
2023-04-15T16:49:42.996Z,99953.53
2023-04-15T16:52:44.855Z,99957.50
2023-04-15T16:55:46.806Z,99954.13
2023-04-15T16:58:48.711Z,99963.28
2023-04-15T17:01:50.817Z,99969.63
2023-04-15T17:04:52.746Z,99969.78
2023-04-15T17:07:55.240Z,99967.09
2023-04-15T17:10:58.220Z,99974.56
2023-04-15T17:14:00.125Z,99989.75
2023-04-15T17:17:02.088Z,99989.06
2023-04-15T17:20:04.633Z,99993.00
2023-04-15T17:23:06.669Z,100001.31
2023-04-15T17:26:08.751Z,100019.59
2023-04-15T17:29:10.632Z,100022.28
2023-04-15T17:32:12.611Z,100019.19
2023-04-15T17:35:17.054Z,100021.16
2023-04-15T17:38:18.920Z,100024.38
2023-04-15T17:41:20.860Z,100029.03
2023-04-15T17:44:25.073Z,100033.81
2023-04-15T17:47:27.962Z,100035.50
2023-04-15T17:50:29.966Z,100036.63
2023-04-15T17:53:31.885Z,100034.66
2023-04-15T17:56:35.263Z,100032.69
2023-04-15T17:59:37.285Z,100039.00
2023-04-15T18:02:39.788Z,100047.72
2023-04-15T18:05:42.786Z,100042.66
2023-04-15T18:08:44.722Z,100045.06
2023-04-15T18:11:48.452Z,100040.13
2023-04-15T18:14:50.629Z,100035.19
2023-04-15T18:17:52.710Z,100040.41
2023-04-15T18:20:54.633Z,100043.22
2023-04-15T18:23:56.623Z,100048.28
2023-04-15T18:26:59.296Z,100048.44
2023-04-15T18:30:02.478Z,100052.50
2023-04-15T18:33:05.575Z,100056.44
2023-04-15T18:36:07.649Z,100054.75
2023-04-15T18:39:10.129Z,100057.41
2023-04-15T18:42:12.209Z,100062.47
2023-04-15T18:45:14.328Z,100059.91
2023-04-15T18:48:17.696Z,100062.88
2023-04-15T18:51:19.683Z,100074.13
2023-04-15T18:54:21.755Z,100074.53
2023-04-15T18:57:31.268Z,100076.06
2023-04-15T19:00:40.500Z,100064.38
2023-04-15T19:03:43.499Z,100066.41
2023-04-15T19:06:46.649Z,100062.41
2023-04-15T19:09:49.125Z,100070.22
2023-04-15T19:12:51.076Z,100058.81
2023-04-15T19:15:53.063Z,100048.41
2023-04-15T19:18:54.968Z,100050.50
2023-04-15T19:21:56.855Z,100059.88
2023-04-15T19:24:58.897Z,100067.91
2023-04-15T19:28:00.770Z,100064.78
2023-04-15T19:31:04.065Z,100058.69
2023-04-15T19:34:06.456Z,100068.69
2023-04-15T19:37:08.428Z,100071.78
2023-04-15T19:40:10.719Z,100076.25
2023-04-15T19:43:12.678Z,100069.63
2023-04-15T19:46:14.727Z,100065.22
2023-04-15T19:49:16.893Z,100062.88
2023-04-15T19:52:18.818Z,100065.47
2023-04-15T19:55:20.994Z,100074.91
2023-04-15T19:58:22.877Z,100075.19
2023-04-15T20:01:24.751Z,100083.91
2023-04-15T20:04:27.449Z,100088.97
2023-04-15T20:07:29.449Z,100082.47
2023-04-15T20:10:31.907Z,100082.78
2023-04-15T20:13:33.919Z,100091.19
2023-04-15T20:16:38.331Z,100077.13
2023-04-15T20:19:40.257Z,100078.13
2023-04-15T20:22:42.467Z,100073.63
2023-04-15T20:25:45.458Z,100078.91
2023-04-15T20:28:47.263Z,100072.84
2023-04-15T20:31:49.200Z,100077.53
2023-04-15T20:34:51.300Z,100074.28
2023-04-15T20:37:53.390Z,100086.31
2023-04-15T20:40:55.279Z,100098.94
2023-04-15T20:43:57.114Z,100080.44
2023-04-15T20:46:58.950Z,100087.47
2023-04-15T20:50:00.998Z,100092.59
2023-04-15T20:53:04.461Z,100095.50
2023-04-15T20:56:06.575Z,100095.66
2023-04-15T20:59:08.488Z,100085.22
2023-04-15T21:02:10.689Z,100086.34
2023-04-15T21:05:12.644Z,100083.91
2023-04-15T21:08:14.581Z,100096.19
2023-04-15T21:11:28.421Z,100092.81
2023-04-15T21:14:40.665Z,100091.97
2023-04-15T21:17:42.665Z,100106.97
2023-04-15T21:20:44.673Z,100106.13
2023-04-15T21:23:46.609Z,100102.75
2023-04-15T21:26:48.560Z,100107.09
2023-04-15T21:29:50.471Z,100102.50
2023-04-15T21:32:52.398Z,100121.16
2023-04-15T21:35:54.698Z,100117.38
2023-04-15T21:38:56.604Z,100125.75
2023-04-15T21:41:59.623Z,100116.53
2023-04-15T21:45:01.482Z,100113.03
2023-04-15T21:48:08.044Z,100100.78
2023-04-15T21:51:10.514Z,100100.78
2023-04-15T21:54:12.353Z,100095.47
2023-04-15T21:57:14.308Z,100085.19
2023-04-15T22:00:16.564Z,100082.91
2023-04-15T22:03:18.705Z,100077.34
2023-04-15T22:06:21.153Z,100076.13
2023-04-15T22:09:23.090Z,100072.25
2023-04-15T22:12:25.021Z,100068.88
2023-04-15T22:15:27.498Z,100066.09
2023-04-15T22:18:29.302Z,100066.25
2023-04-15T22:21:31.976Z,100069.03
2023-04-15T22:24:40.452Z,100062.50
2023-04-15T22:27:42.644Z,100067.59
2023-04-15T22:30:44.553Z,100069.66
2023-04-15T22:33:46.482Z,100067.38
2023-04-15T22:36:49.391Z,100071.38
2023-04-15T22:39:51.998Z,100068.72
2023-04-15T22:42:53.884Z,100065.81
2023-04-15T22:45:56.697Z,100064.38
2023-04-15T22:48:58.644Z,100083.47
2023-04-15T22:52:00.713Z,100079.13
2023-04-15T22:55:02.709Z,100080.09
2023-04-15T22:58:04.686Z,100083.25
2023-04-15T23:01:06.617Z,100095.09
2023-04-15T23:04:09.522Z,100107.31
2023-04-15T23:07:13.013Z,100112.66
2023-04-15T23:10:14.877Z,100100.06
2023-04-15T23:13:16.742Z,100115.19
2023-04-15T23:16:18.800Z,100108.41
2023-04-15T23:19:20.818Z,100111.44
2023-04-15T23:22:22.742Z,100112.53
2023-04-15T23:25:24.582Z,100114.94
2023-04-15T23:28:26.444Z,100119.44
2023-04-15T23:31:28.332Z,100134.06
2023-04-15T23:34:30.298Z,100132.75
2023-04-15T23:37:32.196Z,100133.81
2023-04-15T23:40:34.171Z,100146.66
2023-04-15T23:43:36.157Z,100145.81
2023-04-15T23:46:38.064Z,100159.13
2023-04-15T23:49:41.082Z,100158.41
2023-04-15T23:52:42.933Z,100149.81
2023-04-15T23:55:44.749Z,100162.16
2023-04-15T23:58:46.675Z,100157.53
